sensor_id;sensor_type;location;lat;lon;timestamp;temperature;humidity
15259;DHT22;34462;51.368;12.364;2022-09-12T00:01:22;14.30;99.90
15259;DHT22;34462;51.368;12.364;2022-09-12T00:03:52;14.30;99.90
15259;DHT22;34462;51.368;12.364;2022-09-12T00:06:22;14.20;99.90
15259;DHT22;34462;51.368;12.364;2022-09-12T00:08:54;14.10;99.90
15259;DHT22;34462;51.368;12.364;2022-09-12T00:11:25;14.10;99.90
15259;DHT22;34462;51.368;12.364;2022-09-12T00:13:56;14.00;99.90
15259;DHT22;34462;51.368;12.364;2022-09-12T00:16:29;14.00;99.90
15259;DHT22;34462;51.368;12.364;2022-09-12T00:18:59;14.00;99.90
15259;DHT22;34462;51.368;12.364;2022-09-12T00:21:28;13.90;99.90
15259;DHT22;34462;51.368;12.364;2022-09-12T00:23:57;13.90;99.90
15259;DHT22;34462;51.368;12.364;2022-09-12T00:26:25;14.00;99.90
15259;DHT22;34462;51.368;12.364;2022-09-12T00:28:53;14.00;99.90
15259;DHT22;34462;51.368;12.364;2022-09-12T00:31:22;14.10;99.90
15259;DHT22;34462;51.368;12.364;2022-09-12T00:33:55;14.10;99.90
15259;DHT22;34462;51.368;12.364;2022-09-12T00:36:28;14.20;99.90
15259;DHT22;34462;51.368;12.364;2022-09-12T00:38:57;14.30;99.90
15259;DHT22;34462;51.368;12.364;2022-09-12T00:41:27;14.30;99.90
15259;DHT22;34462;51.368;12.364;2022-09-12T00:43:58;14.30;99.90
15259;DHT22;34462;51.368;12.364;2022-09-12T00:46:33;14.40;99.90
15259;DHT22;34462;51.368;12.364;2022-09-12T00:49:11;14.50;99.90
15259;DHT22;34462;51.368;12.364;2022-09-12T00:51:44;14.40;99.90
15259;DHT22;34462;51.368;12.364;2022-09-12T00:54:20;14.50;99.90
15259;DHT22;34462;51.368;12.364;2022-09-12T00:56:52;14.50;99.90
15259;DHT22;34462;51.368;12.364;2022-09-12T00:59:27;14.40;99.90
15259;DHT22;34462;51.368;12.364;2022-09-12T01:01:59;14.40;99.90
15259;DHT22;34462;51.368;12.364;2022-09-12T01:04:29;14.30;99.90
15259;DHT22;34462;51.368;12.364;2022-09-12T01:06:58;14.30;99.90
15259;DHT22;34462;51.368;12.364;2022-09-12T01:09:26;14.20;99.90
15259;DHT22;34462;51.368;12.364;2022-09-12T01:11:54;14.10;99.90
15259;DHT22;34462;51.368;12.364;2022-09-12T01:14:23;14.00;99.90
15259;DHT22;34462;51.368;12.364;2022-09-12T01:16:51;13.90;99.90
15259;DHT22;34462;51.368;12.364;2022-09-12T01:20:03;13.90;99.90
15259;DHT22;34462;51.368;12.364;2022-09-12T01:23:26;13.90;99.90
15259;DHT22;34462;51.368;12.364;2022-09-12T01:26:33;13.90;99.90
15259;DHT22;34462;51.368;12.364;2022-09-12T01:29:37;14.00;99.90
15259;DHT22;34462;51.368;12.364;2022-09-12T01:32:23;14.10;99.90
15259;DHT22;34462;51.368;12.364;2022-09-12T01:35:04;14.00;99.90
15259;DHT22;34462;51.368;12.364;2022-09-12T01:37:46;14.10;99.90
15259;DHT22;34462;51.368;12.364;2022-09-12T01:40:26;14.00;99.90
15259;DHT22;34462;51.368;12.364;2022-09-12T01:43:06;14.10;99.90
15259;DHT22;34462;51.368;12.364;2022-09-12T01:45:45;14.10;99.90
15259;DHT22;34462;51.368;12.364;2022-09-12T01:48:28;14.10;99.90
15259;DHT22;34462;51.368;12.364;2022-09-12T01:51:05;14.10;99.90
15259;DHT22;34462;51.368;12.364;2022-09-12T01:53:42;14.10;99.90
15259;DHT22;34462;51.368;12.364;2022-09-12T01:56:16;14.00;99.90
15259;DHT22;34462;51.368;12.364;2022-09-12T01:58:51;14.00;99.90
15259;DHT22;34462;51.368;12.364;2022-09-12T02:01:25;14.00;99.90
15259;DHT22;34462;51.368;12.364;2022-09-12T02:04:03;14.00;99.90
15259;DHT22;34462;51.368;12.364;2022-09-12T02:06:39;13.90;99.90
15259;DHT22;34462;51.368;12.364;2022-09-12T02:09:17;13.90;99.90
15259;DHT22;34462;51.368;12.364;2022-09-12T02:11:52;13.80;99.90
15259;DHT22;34462;51.368;12.364;2022-09-12T02:14:27;13.70;99.90
15259;DHT22;34462;51.368;12.364;2022-09-12T02:17:02;13.70;99.90
15259;DHT22;34462;51.368;12.364;2022-09-12T02:19:40;13.70;99.90
15259;DHT22;34462;51.368;12.364;2022-09-12T02:22:16;13.60;99.90
15259;DHT22;34462;51.368;12.364;2022-09-12T02:24:51;13.60;99.90
15259;DHT22;34462;51.368;12.364;2022-09-12T02:27:25;13.60;99.90
15259;DHT22;34462;51.368;12.364;2022-09-12T02:29:57;13.50;99.90
15259;DHT22;34462;51.368;12.364;2022-09-12T02:32:29;13.50;99.90
15259;DHT22;34462;51.368;12.364;2022-09-12T02:35:07;13.50;99.90
15259;DHT22;34462;51.368;12.364;2022-09-12T02:37:49;13.40;99.90
15259;DHT22;34462;51.368;12.364;2022-09-12T02:40:24;13.30;99.90
15259;DHT22;34462;51.368;12.364;2022-09-12T02:42:52;13.30;99.90
15259;DHT22;34462;51.368;12.364;2022-09-12T02:45:20;13.30;99.90
15259;DHT22;34462;51.368;12.364;2022-09-12T02:47:53;13.20;99.90
15259;DHT22;34462;51.368;12.364;2022-09-12T02:50:27;13.20;99.90
15259;DHT22;34462;51.368;12.364;2022-09-12T02:52:56;13.10;99.90
15259;DHT22;34462;51.368;12.364;2022-09-12T02:55:27;13.10;99.90
15259;DHT22;34462;51.368;12.364;2022-09-12T02:57:56;13.10;99.90
15259;DHT22;34462;51.368;12.364;2022-09-12T03:00:25;13.00;99.90
15259;DHT22;34462;51.368;12.364;2022-09-12T03:03:15;13.00;99.90
15259;DHT22;34462;51.368;12.364;2022-09-12T03:05:56;13.00;99.90
15259;DHT22;34462;51.368;12.364;2022-09-12T03:08:58;12.90;99.90
15259;DHT22;34462;51.368;12.364;2022-09-12T03:11:47;12.90;99.90
15259;DHT22;34462;51.368;12.364;2022-09-12T03:15:07;12.90;99.90
15259;DHT22;34462;51.368;12.364;2022-09-12T03:17:51;12.80;99.90
15259;DHT22;34462;51.368;12.364;2022-09-12T03:20:38;12.90;99.90
15259;DHT22;34462;51.368;12.364;2022-09-12T03:23:20;12.80;99.90
15259;DHT22;34462;51.368;12.364;2022-09-12T03:25:56;12.80;99.90
15259;DHT22;34462;51.368;12.364;2022-09-12T03:28:28;12.80;99.90
15259;DHT22;34462;51.368;12.364;2022-09-12T03:30:59;12.70;99.90
15259;DHT22;34462;51.368;12.364;2022-09-12T03:33:28;12.70;99.90
15259;DHT22;34462;51.368;12.364;2022-09-12T03:35:56;12.70;99.90
15259;DHT22;34462;51.368;12.364;2022-09-12T03:38:26;12.70;99.90
15259;DHT22;34462;51.368;12.364;2022-09-12T03:40:54;12.70;99.90
15259;DHT22;34462;51.368;12.364;2022-09-12T03:43:22;12.70;99.90
15259;DHT22;34462;51.368;12.364;2022-09-12T03:45:50;12.70;99.90
15259;DHT22;34462;51.368;12.364;2022-09-12T03:48:19;12.70;99.90
15259;DHT22;34462;51.368;12.364;2022-09-12T03:50:47;12.60;99.90
15259;DHT22;34462;51.368;12.364;2022-09-12T03:53:15;12.60;99.90
15259;DHT22;34462;51.368;12.364;2022-09-12T03:55:44;12.60;99.90
15259;DHT22;34462;51.368;12.364;2022-09-12T03:58:12;12.60;99.90
15259;DHT22;34462;51.368;12.364;2022-09-12T04:00:40;12.60;99.90
15259;DHT22;34462;51.368;12.364;2022-09-12T04:03:09;12.60;99.90
15259;DHT22;34462;51.368;12.364;2022-09-12T04:05:37;12.60;99.90
15259;DHT22;34462;51.368;12.364;2022-09-12T04:08:05;12.60;99.90
15259;DHT22;34462;51.368;12.364;2022-09-12T04:10:33;12.60;99.90
15259;DHT22;34462;51.368;12.364;2022-09-12T04:13:03;12.70;99.90
15259;DHT22;34462;51.368;12.364;2022-09-12T04:15:31;12.60;99.90
15259;DHT22;34462;51.368;12.364;2022-09-12T04:17:59;12.70;99.90
15259;DHT22;34462;51.368;12.364;2022-09-12T04:20:31;12.70;99.90
15259;DHT22;34462;51.368;12.364;2022-09-12T04:22:59;12.70;99.90
15259;DHT22;34462;51.368;12.364;2022-09-12T04:25:27;12.70;99.90
15259;DHT22;34462;51.368;12.364;2022-09-12T04:27:56;12.60;99.90
15259;DHT22;34462;51.368;12.364;2022-09-12T04:30:26;12.70;99.90
15259;DHT22;34462;51.368;12.364;2022-09-12T04:32:54;12.80;99.90
15259;DHT22;34462;51.368;12.364;2022-09-12T04:35:22;12.80;99.90
15259;DHT22;34462;51.368;12.364;2022-09-12T04:37:50;12.90;99.90
15259;DHT22;34462;51.368;12.364;2022-09-12T04:40:18;12.90;99.90
15259;DHT22;34462;51.368;12.364;2022-09-12T04:42:46;13.00;99.90
15259;DHT22;34462;51.368;12.364;2022-09-12T04:45:14;13.00;99.90
15259;DHT22;34462;51.368;12.364;2022-09-12T04:47:44;13.00;99.90
15259;DHT22;34462;51.368;12.364;2022-09-12T04:50:12;13.00;99.90
15259;DHT22;34462;51.368;12.364;2022-09-12T04:52:41;13.00;99.90
15259;DHT22;34462;51.368;12.364;2022-09-12T04:55:09;13.00;99.90
15259;DHT22;34462;51.368;12.364;2022-09-12T04:57:37;13.10;99.90
15259;DHT22;34462;51.368;12.364;2022-09-12T05:00:06;13.00;99.90
15259;DHT22;34462;51.368;12.364;2022-09-12T05:02:36;13.00;99.90
15259;DHT22;34462;51.368;12.364;2022-09-12T05:05:06;13.00;99.90
15259;DHT22;34462;51.368;12.364;2022-09-12T05:07:35;12.80;99.90
15259;DHT22;34462;51.368;12.364;2022-09-12T05:10:04;12.90;99.90
15259;DHT22;34462;51.368;12.364;2022-09-12T05:12:32;12.90;99.90
15259;DHT22;34462;51.368;12.364;2022-09-12T05:15:01;12.90;99.90
15259;DHT22;34462;51.368;12.364;2022-09-12T05:17:30;12.90;99.90
15259;DHT22;34462;51.368;12.364;2022-09-12T05:19:58;12.90;99.90
15259;DHT22;34462;51.368;12.364;2022-09-12T05:22:28;12.90;99.90
15259;DHT22;34462;51.368;12.364;2022-09-12T05:24:56;12.90;99.90
15259;DHT22;34462;51.368;12.364;2022-09-12T05:27:24;12.90;99.90
15259;DHT22;34462;51.368;12.364;2022-09-12T05:29:52;13.00;99.90
15259;DHT22;34462;51.368;12.364;2022-09-12T05:32:20;12.90;99.90
15259;DHT22;34462;51.368;12.364;2022-09-12T05:34:48;13.00;99.90
15259;DHT22;34462;51.368;12.364;2022-09-12T05:37:16;13.10;99.90
15259;DHT22;34462;51.368;12.364;2022-09-12T05:39:46;13.10;99.90
15259;DHT22;34462;51.368;12.364;2022-09-12T05:42:14;13.20;99.90
15259;DHT22;34462;51.368;12.364;2022-09-12T05:44:42;13.30;99.90
15259;DHT22;34462;51.368;12.364;2022-09-12T05:47:10;13.30;99.90
15259;DHT22;34462;51.368;12.364;2022-09-12T05:49:39;13.40;99.90
15259;DHT22;34462;51.368;12.364;2022-09-12T05:52:07;13.60;99.90
15259;DHT22;34462;51.368;12.364;2022-09-12T05:54:35;13.80;99.90
15259;DHT22;34462;51.368;12.364;2022-09-12T05:57:04;13.90;99.90
15259;DHT22;34462;51.368;12.364;2022-09-12T05:59:32;14.10;99.90
15259;DHT22;34462;51.368;12.364;2022-09-12T06:02:00;14.30;99.90
15259;DHT22;34462;51.368;12.364;2022-09-12T06:04:28;14.50;99.90
15259;DHT22;34462;51.368;12.364;2022-09-12T06:06:56;14.60;99.90
15259;DHT22;34462;51.368;12.364;2022-09-12T06:09:24;14.80;99.90
15259;DHT22;34462;51.368;12.364;2022-09-12T06:11:53;14.90;99.90
15259;DHT22;34462;51.368;12.364;2022-09-12T06:14:22;15.00;99.90
15259;DHT22;34462;51.368;12.364;2022-09-12T06:16:50;14.90;99.90
15259;DHT22;34462;51.368;12.364;2022-09-12T06:19:21;14.90;99.90
15259;DHT22;34462;51.368;12.364;2022-09-12T06:21:50;15.00;99.90
15259;DHT22;34462;51.368;12.364;2022-09-12T06:24:20;15.00;99.90
15259;DHT22;34462;51.368;12.364;2022-09-12T06:26:48;15.10;99.90
15259;DHT22;34462;51.368;12.364;2022-09-12T06:29:18;15.10;99.90
15259;DHT22;34462;51.368;12.364;2022-09-12T06:31:48;15.10;99.90
15259;DHT22;34462;51.368;12.364;2022-09-12T06:34:16;15.10;99.90
15259;DHT22;34462;51.368;12.364;2022-09-12T06:36:46;15.10;99.90
15259;DHT22;34462;51.368;12.364;2022-09-12T06:39:18;15.10;99.90
15259;DHT22;34462;51.368;12.364;2022-09-12T06:41:47;15.00;99.90
15259;DHT22;34462;51.368;12.364;2022-09-12T06:44:18;15.00;99.90
15259;DHT22;34462;51.368;12.364;2022-09-12T06:46:49;15.10;99.90
15259;DHT22;34462;51.368;12.364;2022-09-12T06:49:19;15.20;99.90
15259;DHT22;34462;51.368;12.364;2022-09-12T06:51:47;15.30;99.90
15259;DHT22;34462;51.368;12.364;2022-09-12T06:54:15;15.30;99.90
15259;DHT22;34462;51.368;12.364;2022-09-12T06:56:43;15.40;99.90
15259;DHT22;34462;51.368;12.364;2022-09-12T06:59:12;15.50;99.90
15259;DHT22;34462;51.368;12.364;2022-09-12T07:01:40;15.60;99.90
15259;DHT22;34462;51.368;12.364;2022-09-12T07:04:10;15.70;99.90
15259;DHT22;34462;51.368;12.364;2022-09-12T07:06:39;15.70;99.90
15259;DHT22;34462;51.368;12.364;2022-09-12T07:09:12;15.80;99.90
15259;DHT22;34462;51.368;12.364;2022-09-12T07:11:43;15.90;99.90
15259;DHT22;34462;51.368;12.364;2022-09-12T07:14:13;15.90;99.90
15259;DHT22;34462;51.368;12.364;2022-09-12T07:16:42;16.00;99.90
15259;DHT22;34462;51.368;12.364;2022-09-12T07:19:12;16.00;99.90
15259;DHT22;34462;51.368;12.364;2022-09-12T07:21:40;16.20;99.90
15259;DHT22;34462;51.368;12.364;2022-09-12T07:24:08;16.20;99.90
15259;DHT22;34462;51.368;12.364;2022-09-12T07:26:38;16.30;99.90
15259;DHT22;34462;51.368;12.364;2022-09-12T07:29:12;16.30;99.90
15259;DHT22;34462;51.368;12.364;2022-09-12T07:32:02;16.30;99.90
15259;DHT22;34462;51.368;12.364;2022-09-12T07:34:33;16.40;99.90
15259;DHT22;34462;51.368;12.364;2022-09-12T07:37:01;16.40;99.90
15259;DHT22;34462;51.368;12.364;2022-09-12T07:39:30;16.50;99.90
15259;DHT22;34462;51.368;12.364;2022-09-12T07:41:58;16.70;99.90
15259;DHT22;34462;51.368;12.364;2022-09-12T07:44:26;16.90;99.90
15259;DHT22;34462;51.368;12.364;2022-09-12T07:46:54;17.00;99.90
15259;DHT22;34462;51.368;12.364;2022-09-12T07:49:23;17.00;99.90
15259;DHT22;34462;51.368;12.364;2022-09-12T07:51:52;17.10;99.90
15259;DHT22;34462;51.368;12.364;2022-09-12T07:54:20;17.10;99.90
15259;DHT22;34462;51.368;12.364;2022-09-12T07:56:48;17.10;99.90
15259;DHT22;34462;51.368;12.364;2022-09-12T07:59:17;17.00;99.90
15259;DHT22;34462;51.368;12.364;2022-09-12T08:02:05;17.00;99.90
15259;DHT22;34462;51.368;12.364;2022-09-12T08:04:42;17.00;99.90
15259;DHT22;34462;51.368;12.364;2022-09-12T08:07:11;17.00;99.90
15259;DHT22;34462;51.368;12.364;2022-09-12T08:09:40;17.20;99.90
15259;DHT22;34462;51.368;12.364;2022-09-12T08:12:07;17.10;99.90
15259;DHT22;34462;51.368;12.364;2022-09-12T08:14:35;17.10;99.90
15259;DHT22;34462;51.368;12.364;2022-09-12T08:17:04;17.20;99.90
15259;DHT22;34462;51.368;12.364;2022-09-12T08:19:32;17.20;99.90
15259;DHT22;34462;51.368;12.364;2022-09-12T08:22:00;17.30;99.90
15259;DHT22;34462;51.368;12.364;2022-09-12T08:24:30;17.50;99.90
15259;DHT22;34462;51.368;12.364;2022-09-12T08:26:59;17.60;99.90
15259;DHT22;34462;51.368;12.364;2022-09-12T08:29:27;17.50;99.90
15259;DHT22;34462;51.368;12.364;2022-09-12T08:31:55;17.60;99.90
15259;DHT22;34462;51.368;12.364;2022-09-12T08:34:23;17.60;99.90
15259;DHT22;34462;51.368;12.364;2022-09-12T08:36:51;17.70;99.90
15259;DHT22;34462;51.368;12.364;2022-09-12T08:39:20;17.80;99.90
15259;DHT22;34462;51.368;12.364;2022-09-12T08:41:57;18.00;99.90
15259;DHT22;34462;51.368;12.364;2022-09-12T08:44:49;18.10;99.90
15259;DHT22;34462;51.368;12.364;2022-09-12T08:47:31;18.20;99.90
15259;DHT22;34462;51.368;12.364;2022-09-12T08:50:09;18.30;99.90
15259;DHT22;34462;51.368;12.364;2022-09-12T08:52:47;18.40;99.90
15259;DHT22;34462;51.368;12.364;2022-09-12T08:55:28;18.60;99.90
15259;DHT22;34462;51.368;12.364;2022-09-12T08:58:03;18.60;99.90
15259;DHT22;34462;51.368;12.364;2022-09-12T09:00:46;18.60;99.90
15259;DHT22;34462;51.368;12.364;2022-09-12T09:03:45;18.70;99.90
15259;DHT22;34462;51.368;12.364;2022-09-12T09:06:34;18.80;99.90
15259;DHT22;34462;51.368;12.364;2022-09-12T09:09:18;18.70;99.90
15259;DHT22;34462;51.368;12.364;2022-09-12T09:11:59;18.60;99.90
15259;DHT22;34462;51.368;12.364;2022-09-12T09:15:01;18.50;99.90
15259;DHT22;34462;51.368;12.364;2022-09-12T09:17:56;18.40;99.90
15259;DHT22;34462;51.368;12.364;2022-09-12T09:20:32;18.20;99.90
15259;DHT22;34462;51.368;12.364;2022-09-12T09:23:07;18.30;99.90
15259;DHT22;34462;51.368;12.364;2022-09-12T09:25:47;18.30;99.90
15259;DHT22;34462;51.368;12.364;2022-09-12T09:28:24;18.40;99.90
15259;DHT22;34462;51.368;12.364;2022-09-12T09:30:59;18.40;99.90
15259;DHT22;34462;51.368;12.364;2022-09-12T09:33:32;18.50;99.90
15259;DHT22;34462;51.368;12.364;2022-09-12T09:36:07;18.70;99.90
15259;DHT22;34462;51.368;12.364;2022-09-12T09:38:47;18.80;99.90
15259;DHT22;34462;51.368;12.364;2022-09-12T09:41:25;18.90;99.90
15259;DHT22;34462;51.368;12.364;2022-09-12T09:44:03;19.00;99.90
15259;DHT22;34462;51.368;12.364;2022-09-12T09:46:38;19.00;99.90
15259;DHT22;34462;51.368;12.364;2022-09-12T09:49:09;19.00;99.90
15259;DHT22;34462;51.368;12.364;2022-09-12T09:51:41;19.20;99.90
15259;DHT22;34462;51.368;12.364;2022-09-12T09:54:16;19.30;99.90
15259;DHT22;34462;51.368;12.364;2022-09-12T09:56:48;19.40;99.90
15259;DHT22;34462;51.368;12.364;2022-09-12T09:59:18;19.60;99.90
15259;DHT22;34462;51.368;12.364;2022-09-12T10:01:55;19.90;99.90
15259;DHT22;34462;51.368;12.364;2022-09-12T10:04:29;20.00;99.90
15259;DHT22;34462;51.368;12.364;2022-09-12T10:07:02;20.10;99.90
15259;DHT22;34462;51.368;12.364;2022-09-12T10:09:33;20.20;99.90
15259;DHT22;34462;51.368;12.364;2022-09-12T10:12:19;20.20;99.90
15259;DHT22;34462;51.368;12.364;2022-09-12T10:14:56;20.30;99.90
15259;DHT22;34462;51.368;12.364;2022-09-12T10:17:29;20.40;99.90
15259;DHT22;34462;51.368;12.364;2022-09-12T10:20:28;20.60;99.90
15259;DHT22;34462;51.368;12.364;2022-09-12T10:23:01;20.90;99.90
15259;DHT22;34462;51.368;12.364;2022-09-12T10:25:47;21.20;99.90
15259;DHT22;34462;51.368;12.364;2022-09-12T10:28:23;21.50;99.90
15259;DHT22;34462;51.368;12.364;2022-09-12T10:30:57;21.70;99.90
15259;DHT22;34462;51.368;12.364;2022-09-12T10:33:28;21.90;99.90
15259;DHT22;34462;51.368;12.364;2022-09-12T10:35:57;22.10;99.90
15259;DHT22;34462;51.368;12.364;2022-09-12T10:38:27;22.30;99.90
15259;DHT22;34462;51.368;12.364;2022-09-12T10:41:02;22.40;99.90
15259;DHT22;34462;51.368;12.364;2022-09-12T10:43:35;22.60;99.90
15259;DHT22;34462;51.368;12.364;2022-09-12T10:46:27;22.50;99.90
15259;DHT22;34462;51.368;12.364;2022-09-12T10:49:24;22.30;99.90
15259;DHT22;34462;51.368;12.364;2022-09-12T10:51:56;21.90;99.90
15259;DHT22;34462;51.368;12.364;2022-09-12T10:54:42;21.70;99.90
15259;DHT22;34462;51.368;12.364;2022-09-12T10:57:23;21.30;99.90
15259;DHT22;34462;51.368;12.364;2022-09-12T11:00:07;21.30;99.90
15259;DHT22;34462;51.368;12.364;2022-09-12T11:02:50;21.40;99.90
15259;DHT22;34462;51.368;12.364;2022-09-12T11:05:36;21.50;99.90
15259;DHT22;34462;51.368;12.364;2022-09-12T11:11:35;21.50;99.90
15259;DHT22;34462;51.368;12.364;2022-09-12T11:14:25;21.70;99.90
15259;DHT22;34462;51.368;12.364;2022-09-12T11:17:14;21.70;99.90
15259;DHT22;34462;51.368;12.364;2022-09-12T11:20:02;21.60;99.90
15259;DHT22;34462;51.368;12.364;2022-09-12T11:23:05;21.50;99.90
15259;DHT22;34462;51.368;12.364;2022-09-12T11:25:57;21.50;99.90
15259;DHT22;34462;51.368;12.364;2022-09-12T11:28:34;21.50;99.90
15259;DHT22;34462;51.368;12.364;2022-09-12T11:31:54;21.30;99.90
15259;DHT22;34462;51.368;12.364;2022-09-12T11:34:52;21.30;99.90
15259;DHT22;34462;51.368;12.364;2022-09-12T11:37:51;21.20;99.90
15259;DHT22;34462;51.368;12.364;2022-09-12T11:40:58;20.90;99.90
15259;DHT22;34462;51.368;12.364;2022-09-12T11:43:35;20.70;99.90
15259;DHT22;34462;51.368;12.364;2022-09-12T11:46:16;20.70;99.90
15259;DHT22;34462;51.368;12.364;2022-09-12T11:48:52;20.50;99.90
15259;DHT22;34462;51.368;12.364;2022-09-12T11:51:27;20.50;99.90
15259;DHT22;34462;51.368;12.364;2022-09-12T11:54:08;20.50;99.90
15259;DHT22;34462;51.368;12.364;2022-09-12T11:56:46;20.40;99.90
15259;DHT22;34462;51.368;12.364;2022-09-12T11:59:28;20.60;99.90
15259;DHT22;34462;51.368;12.364;2022-09-12T12:02:02;20.50;99.90
15259;DHT22;34462;51.368;12.364;2022-09-12T12:04:50;20.70;99.90
15259;DHT22;34462;51.368;12.364;2022-09-12T12:07:37;20.90;99.90
15259;DHT22;34462;51.368;12.364;2022-09-12T12:10:23;20.90;99.90
15259;DHT22;34462;51.368;12.364;2022-09-12T12:12:57;21.00;99.90
15259;DHT22;34462;51.368;12.364;2022-09-12T12:15:28;21.00;99.90
15259;DHT22;34462;51.368;12.364;2022-09-12T12:18:02;21.00;99.90
15259;DHT22;34462;51.368;12.364;2022-09-12T12:20:33;21.00;99.90
15259;DHT22;34462;51.368;12.364;2022-09-12T12:23:02;21.10;99.90
15259;DHT22;34462;51.368;12.364;2022-09-12T12:25:40;21.20;99.90
15259;DHT22;34462;51.368;12.364;2022-09-12T12:31:26;21.50;99.90
15259;DHT22;34462;51.368;12.364;2022-09-12T12:34:00;21.60;99.90
15259;DHT22;34462;51.368;12.364;2022-09-12T12:36:44;21.80;99.90
15259;DHT22;34462;51.368;12.364;2022-09-12T12:42:59;22.10;99.90
15259;DHT22;34462;51.368;12.364;2022-09-12T12:45:58;22.20;99.90
15259;DHT22;34462;51.368;12.364;2022-09-12T12:48:50;22.20;99.90
15259;DHT22;34462;51.368;12.364;2022-09-12T12:51:48;22.30;99.90
15259;DHT22;34462;51.368;12.364;2022-09-12T12:57:28;22.50;99.90
15259;DHT22;34462;51.368;12.364;2022-09-12T13:00:23;22.50;99.90
15259;DHT22;34462;51.368;12.364;2022-09-12T13:02:58;22.70;99.90
15259;DHT22;34462;51.368;12.364;2022-09-12T13:05:37;22.80;99.90
15259;DHT22;34462;51.368;12.364;2022-09-12T13:08:09;22.70;99.90
15259;DHT22;34462;51.368;12.364;2022-09-12T13:10:55;22.90;99.90
15259;DHT22;34462;51.368;12.364;2022-09-12T13:13:29;22.70;99.90
15259;DHT22;34462;51.368;12.364;2022-09-12T13:16:02;22.80;99.90
15259;DHT22;34462;51.368;12.364;2022-09-12T13:18:40;22.80;99.90
15259;DHT22;34462;51.368;12.364;2022-09-12T13:21:13;22.60;99.90
15259;DHT22;34462;51.368;12.364;2022-09-12T13:23:58;22.50;99.90
15259;DHT22;34462;51.368;12.364;2022-09-12T13:26:32;22.50;99.90
15259;DHT22;34462;51.368;12.364;2022-09-12T13:29:08;22.40;99.90
15259;DHT22;34462;51.368;12.364;2022-09-12T13:31:39;22.40;99.90
15259;DHT22;34462;51.368;12.364;2022-09-12T13:34:18;22.50;99.90
15259;DHT22;34462;51.368;12.364;2022-09-12T13:37:12;22.60;99.90
15259;DHT22;34462;51.368;12.364;2022-09-12T13:39:58;22.70;99.90
15259;DHT22;34462;51.368;12.364;2022-09-12T13:42:39;22.80;99.90
15259;DHT22;34462;51.368;12.364;2022-09-12T13:45:14;22.80;99.90
15259;DHT22;34462;51.368;12.364;2022-09-12T13:47:50;22.90;99.90
15259;DHT22;34462;51.368;12.364;2022-09-12T13:50:25;22.80;99.90
15259;DHT22;34462;51.368;12.364;2022-09-12T13:52:59;22.70;99.90
15259;DHT22;34462;51.368;12.364;2022-09-12T13:55:32;22.70;99.90
15259;DHT22;34462;51.368;12.364;2022-09-12T13:58:05;22.70;99.90
15259;DHT22;34462;51.368;12.364;2022-09-12T14:00:41;22.60;99.90
15259;DHT22;34462;51.368;12.364;2022-09-12T14:03:37;22.50;99.90
15259;DHT22;34462;51.368;12.364;2022-09-12T14:06:25;22.50;99.90
15259;DHT22;34462;51.368;12.364;2022-09-12T14:08:54;22.50;99.90
15259;DHT22;34462;51.368;12.364;2022-09-12T14:11:26;22.40;99.90
15259;DHT22;34462;51.368;12.364;2022-09-12T14:13:56;22.20;99.90
15259;DHT22;34462;51.368;12.364;2022-09-12T14:16:25;22.20;99.90
15259;DHT22;34462;51.368;12.364;2022-09-12T14:18:56;22.20;99.90
15259;DHT22;34462;51.368;12.364;2022-09-12T14:21:32;22.10;99.90
15259;DHT22;34462;51.368;12.364;2022-09-12T14:24:04;22.20;99.90
15259;DHT22;34462;51.368;12.364;2022-09-12T14:26:35;22.20;99.90
15259;DHT22;34462;51.368;12.364;2022-09-12T14:29:06;22.10;99.90
15259;DHT22;34462;51.368;12.364;2022-09-12T14:31:36;22.10;99.90
15259;DHT22;34462;51.368;12.364;2022-09-12T14:34:13;22.00;99.90
15259;DHT22;34462;51.368;12.364;2022-09-12T14:36:44;22.00;99.90
15259;DHT22;34462;51.368;12.364;2022-09-12T14:39:21;21.90;99.90
15259;DHT22;34462;51.368;12.364;2022-09-12T14:42:02;21.90;99.90
15259;DHT22;34462;51.368;12.364;2022-09-12T14:44:33;21.80;99.90
15259;DHT22;34462;51.368;12.364;2022-09-12T14:47:12;21.80;99.90
15259;DHT22;34462;51.368;12.364;2022-09-12T14:49:47;21.90;99.90
15259;DHT22;34462;51.368;12.364;2022-09-12T14:52:24;21.90;99.90
15259;DHT22;34462;51.368;12.364;2022-09-12T14:54:56;21.90;99.90
15259;DHT22;34462;51.368;12.364;2022-09-12T14:57:34;21.80;99.90
15259;DHT22;34462;51.368;12.364;2022-09-12T15:00:21;21.80;99.90
15259;DHT22;34462;51.368;12.364;2022-09-12T15:02:50;21.70;99.90
15259;DHT22;34462;51.368;12.364;2022-09-12T15:05:23;21.70;99.90
15259;DHT22;34462;51.368;12.364;2022-09-12T15:07:56;21.70;99.90
15259;DHT22;34462;51.368;12.364;2022-09-12T15:10:28;21.60;99.90
15259;DHT22;34462;51.368;12.364;2022-09-12T15:13:16;21.60;99.90
15259;DHT22;34462;51.368;12.364;2022-09-12T15:15:48;21.50;99.90
15259;DHT22;34462;51.368;12.364;2022-09-12T15:18:18;21.50;99.90
15259;DHT22;34462;51.368;12.364;2022-09-12T15:20:49;21.50;99.90
15259;DHT22;34462;51.368;12.364;2022-09-12T15:23:32;21.50;99.90
15259;DHT22;34462;51.368;12.364;2022-09-12T15:26:03;21.60;99.90
15259;DHT22;34462;51.368;12.364;2022-09-12T15:28:32;21.40;99.90
15259;DHT22;34462;51.368;12.364;2022-09-12T15:31:06;21.40;99.90
15259;DHT22;34462;51.368;12.364;2022-09-12T15:33:38;21.40;99.90
15259;DHT22;34462;51.368;12.364;2022-09-12T15:36:13;21.30;99.90
15259;DHT22;34462;51.368;12.364;2022-09-12T15:38:43;21.20;99.90
15259;DHT22;34462;51.368;12.364;2022-09-12T15:41:15;21.10;99.90
15259;DHT22;34462;51.368;12.364;2022-09-12T15:43:45;21.00;99.90
15259;DHT22;34462;51.368;12.364;2022-09-12T15:46:14;21.00;99.90
15259;DHT22;34462;51.368;12.364;2022-09-12T15:48:44;20.90;99.90
15259;DHT22;34462;51.368;12.364;2022-09-12T15:51:15;20.90;99.90
15259;DHT22;34462;51.368;12.364;2022-09-12T15:53:46;20.90;99.90
15259;DHT22;34462;51.368;12.364;2022-09-12T15:56:16;20.70;99.90
15259;DHT22;34462;51.368;12.364;2022-09-12T15:58:46;20.70;99.90
15259;DHT22;34462;51.368;12.364;2022-09-12T16:01:25;20.70;99.90
15259;DHT22;34462;51.368;12.364;2022-09-12T16:03:54;20.60;99.90
15259;DHT22;34462;51.368;12.364;2022-09-12T16:06:24;20.60;99.90
15259;DHT22;34462;51.368;12.364;2022-09-12T16:08:53;20.60;99.90
15259;DHT22;34462;51.368;12.364;2022-09-12T16:11:23;20.50;99.90
15259;DHT22;34462;51.368;12.364;2022-09-12T16:13:54;20.50;99.90
15259;DHT22;34462;51.368;12.364;2022-09-12T16:16:23;20.50;99.90